Beach, North Dakota
Current Conditions -  °F | °C
As of 11:55 PM on Thursday 27 Nov 2014 (Local Time) from K20U Reporting Station
Light Rain Light Rain  
Wind Chill: 34°   Ceiling: 4800
Heat Index: 34°   Visibility: 10mi
Dew Point: 32°   Wind: 0mph
Humidity: 93%   Direction: NA
Pressure: 29.72"   Gusts: NA
Location:  46.92°N, 104°W
Report Text: K20U 280655Z AUTO 00000KT 10SM -RA FEW033 BKN048 OVC075 01/00 A2972 RMK AO2
Loading
Personal Weather Stations






























Interactive Weather Map New forecast layout! Learn more

10-Day Weather Forecast

Advertisements
Track Severe Weather on mobile